createdAt,value
2023-05-25T00:00:16.934Z,45.27
2023-05-25T00:02:44.808Z,45.51
2023-05-25T00:05:11.865Z,45.33
2023-05-25T00:07:39.296Z,45.44
2023-05-25T00:10:07.184Z,45.80
2023-05-25T00:12:34.417Z,45.83
2023-05-25T00:15:01.338Z,45.69
2023-05-25T00:17:30.217Z,45.86
2023-05-25T00:19:58.381Z,46.14
2023-05-25T00:22:29.279Z,46.39
2023-05-25T00:24:56.309Z,46.15
2023-05-25T00:27:23.250Z,46.30
2023-05-25T00:29:50.073Z,46.13
2023-05-25T00:32:16.958Z,46.33
2023-05-25T00:34:43.908Z,46.29
2023-05-25T00:37:10.824Z,46.76
2023-05-25T00:39:37.711Z,46.29
2023-05-25T00:42:05.333Z,46.55
2023-05-25T00:44:32.309Z,46.38
2023-05-25T00:46:59.751Z,46.44
2023-05-25T00:49:27.017Z,46.35
2023-05-25T00:51:53.867Z,46.40
2023-05-25T00:54:20.839Z,46.81
2023-05-25T00:56:57.781Z,46.82
2023-05-25T00:59:45.942Z,47.11
2023-05-25T01:02:16.489Z,46.85
2023-05-25T01:04:45.771Z,46.80
2023-05-25T01:07:16.020Z,46.86
2023-05-25T01:09:44.717Z,46.74
2023-05-25T01:12:11.889Z,46.90
2023-05-25T01:14:40.825Z,47.13
2023-05-25T01:17:08.091Z,46.66
2023-05-25T01:19:37.453Z,46.59
2023-05-25T01:22:08.251Z,46.73
2023-05-25T01:24:43.310Z,46.84
2023-05-25T01:27:21.016Z,46.85
2023-05-25T01:29:47.854Z,46.97
2023-05-25T01:32:14.885Z,46.98
2023-05-25T01:34:42.169Z,46.99
2023-05-25T01:37:09.020Z,46.85
2023-05-25T01:39:35.874Z,46.83
2023-05-25T01:42:02.779Z,46.96
2023-05-25T01:44:30.002Z,47.09
2023-05-25T01:47:17.325Z,46.81
2023-05-25T01:49:50.619Z,46.76
2023-05-25T01:52:27.119Z,47.22
2023-05-25T01:54:57.473Z,47.12
2023-05-25T01:57:24.285Z,47.46
2023-05-25T01:59:51.224Z,47.34
2023-05-25T02:02:18.820Z,47.24
2023-05-25T02:04:46.232Z,47.56
2023-05-25T02:07:13.477Z,47.77
2023-05-25T02:09:40.393Z,47.67
2023-05-25T02:12:07.470Z,47.82
2023-05-25T02:14:34.429Z,47.69
2023-05-25T02:17:02.406Z,47.86
2023-05-25T02:19:29.849Z,47.78
2023-05-25T02:21:56.879Z,47.60
2023-05-25T02:24:24.863Z,47.74
2023-05-25T02:26:52.008Z,47.95
2023-05-25T02:29:18.855Z,48.14
2023-05-25T02:31:45.841Z,47.90
2023-05-25T02:34:13.945Z,47.89
2023-05-25T02:36:44.009Z,47.95
2023-05-25T02:39:11.337Z,47.90
2023-05-25T02:41:38.584Z,48.05
2023-05-25T02:44:06.360Z,48.17
2023-05-25T02:46:34.083Z,48.13
2023-05-25T02:49:01.167Z,48.50
2023-05-25T02:51:28.738Z,48.36
2023-05-25T02:53:55.795Z,48.44
2023-05-25T02:56:23.154Z,48.64
2023-05-25T02:58:50.375Z,48.68
2023-05-25T03:01:19.021Z,48.56
2023-05-25T03:03:47.347Z,48.73
2023-05-25T03:06:15.049Z,48.72
2023-05-25T03:08:41.929Z,48.57
2023-05-25T03:11:08.720Z,48.82
2023-05-25T03:13:35.975Z,48.70
2023-05-25T03:16:02.792Z,48.89
2023-05-25T03:18:29.567Z,48.85
2023-05-25T03:20:56.782Z,49.25
2023-05-25T03:23:23.634Z,48.98
2023-05-25T03:25:51.063Z,49.09
2023-05-25T03:28:17.941Z,48.93
2023-05-25T03:30:44.752Z,49.00
2023-05-25T03:33:13.977Z,48.93
2023-05-25T03:35:41.159Z,49.16
2023-05-25T03:38:08.139Z,49.36
2023-05-25T03:40:35.064Z,49.10
2023-05-25T03:43:02.129Z,49.36
2023-05-25T03:45:29.227Z,49.51
2023-05-25T03:47:56.539Z,49.72
2023-05-25T03:50:23.465Z,49.71
2023-05-25T03:52:50.360Z,49.75
2023-05-25T03:55:17.352Z,49.79
2023-05-25T03:57:44.345Z,49.89
2023-05-25T04:00:11.798Z,49.60
2023-05-25T04:02:38.671Z,49.78
2023-05-25T04:05:05.932Z,49.92
2023-05-25T04:07:32.805Z,49.84
2023-05-25T04:09:59.853Z,49.97
2023-05-25T04:12:27.441Z,49.78
2023-05-25T04:14:54.257Z,49.71
2023-05-25T04:17:25.019Z,49.85
2023-05-25T04:19:52.720Z,49.61
2023-05-25T04:22:19.671Z,49.44
2023-05-25T04:24:46.894Z,49.76
2023-05-25T04:27:14.507Z,49.42
2023-05-25T04:29:41.964Z,49.54
2023-05-25T04:32:15.035Z,49.59
2023-05-25T04:34:42.535Z,49.25
2023-05-25T04:37:10.045Z,49.61
2023-05-25T04:39:36.987Z,49.70
2023-05-25T04:42:04.846Z,49.60
2023-05-25T04:44:32.707Z,49.51
2023-05-25T04:47:02.799Z,49.55
2023-05-25T04:49:29.747Z,49.44
2023-05-25T04:51:56.678Z,49.25
2023-05-25T04:54:23.632Z,49.42
2023-05-25T04:56:50.618Z,49.53
2023-05-25T04:59:17.387Z,49.30
2023-05-25T05:01:44.954Z,49.15
2023-05-25T05:04:12.018Z,49.14
2023-05-25T05:06:39.184Z,48.99
2023-05-25T05:09:06.133Z,48.73
2023-05-25T05:11:32.951Z,48.53
2023-05-25T05:13:59.755Z,48.47
2023-05-25T05:16:27.029Z,48.73
2023-05-25T05:18:53.866Z,48.50
2023-05-25T05:21:22.150Z,48.29
2023-05-25T05:23:50.197Z,48.17
2023-05-25T05:26:17.080Z,48.04
2023-05-25T05:28:43.848Z,47.94
2023-05-25T05:31:12.545Z,47.92
2023-05-25T05:33:39.787Z,47.90
2023-05-25T05:36:06.981Z,47.96
2023-05-25T05:38:33.966Z,48.01
2023-05-25T05:41:01.438Z,47.68
2023-05-25T05:43:28.246Z,47.64
2023-05-25T05:45:55.149Z,47.92
2023-05-25T05:48:22.958Z,47.70
2023-05-25T05:50:49.862Z,47.75
2023-05-25T05:53:16.965Z,47.56
2023-05-25T05:55:43.959Z,47.49
2023-05-25T05:58:10.954Z,47.22
2023-05-25T06:00:37.859Z,47.39
2023-05-25T06:03:04.749Z,47.15
2023-05-25T06:05:31.708Z,47.39
2023-05-25T06:07:58.777Z,46.88
2023-05-25T06:10:25.622Z,46.99
2023-05-25T06:12:52.894Z,46.47
2023-05-25T06:15:20.286Z,46.75
2023-05-25T06:17:47.169Z,46.77
2023-05-25T06:20:15.240Z,46.28
2023-05-25T06:22:42.795Z,45.96
2023-05-25T06:25:10.619Z,46.48
2023-05-25T06:27:37.552Z,45.80
2023-05-25T06:30:05.080Z,45.75
2023-05-25T06:32:31.962Z,45.77
2023-05-25T06:34:58.803Z,45.62
2023-05-25T06:37:26.196Z,45.20
2023-05-25T06:39:53.961Z,45.32
2023-05-25T06:42:23.094Z,45.00
2023-05-25T06:44:50.127Z,45.18
2023-05-25T06:47:17.068Z,45.31
2023-05-25T06:49:43.974Z,45.14
2023-05-25T06:52:11.110Z,45.16
2023-05-25T06:54:37.959Z,45.24
2023-05-25T06:57:04.909Z,44.64
2023-05-25T06:59:32.117Z,44.86
2023-05-25T07:02:00.261Z,44.35
2023-05-25T07:04:28.700Z,44.27
2023-05-25T07:06:55.592Z,44.68
2023-05-25T07:09:22.537Z,44.61
2023-05-25T07:11:49.377Z,44.29
2023-05-25T07:14:17.654Z,43.99
2023-05-25T07:16:45.339Z,43.55
2023-05-25T07:19:12.276Z,43.30
2023-05-25T07:21:39.135Z,43.51
2023-05-25T07:24:06.103Z,43.75
2023-05-25T07:26:33.576Z,43.14
2023-05-25T07:29:01.047Z,43.19
2023-05-25T07:31:28.023Z,42.69
2023-05-25T07:33:55.768Z,42.71
2023-05-25T07:36:25.127Z,42.65
2023-05-25T07:38:52.047Z,42.85
2023-05-25T07:41:18.918Z,42.36
2023-05-25T07:43:46.348Z,41.94
2023-05-25T07:46:13.140Z,41.96
2023-05-25T07:48:39.937Z,42.01
2023-05-25T07:51:07.284Z,42.26
2023-05-25T07:53:34.145Z,41.57
2023-05-25T07:56:00.953Z,41.29
2023-05-25T07:58:28.140Z,41.60
2023-05-25T08:00:55.050Z,41.68
2023-05-25T08:03:31.748Z,41.48
2023-05-25T08:06:07.774Z,41.21
2023-05-25T08:08:35.134Z,40.75
2023-05-25T08:11:01.977Z,40.74
2023-05-25T08:13:28.956Z,41.38
2023-05-25T08:15:55.730Z,40.50
2023-05-25T08:18:22.589Z,40.27
2023-05-25T08:20:49.599Z,40.10
2023-05-25T08:23:16.458Z,39.86
2023-05-25T08:25:43.406Z,39.72
2023-05-25T08:30:55.419Z,39.65
2023-05-25T08:33:25.139Z,40.08
2023-05-25T08:35:52.993Z,40.09
2023-05-25T08:38:20.097Z,40.27
2023-05-25T08:40:46.905Z,40.60
2023-05-25T08:43:13.689Z,39.98
2023-05-25T08:45:43.810Z,39.92
2023-05-25T08:48:23.861Z,39.48
2023-05-25T08:51:05.192Z,39.69
2023-05-25T08:53:35.174Z,39.18
2023-05-25T08:56:02.799Z,38.86
2023-05-25T08:58:33.825Z,38.91
2023-05-25T09:01:03.302Z,38.51
2023-05-25T09:03:31.164Z,38.83
2023-05-25T09:05:58.712Z,38.18
2023-05-25T09:08:25.723Z,37.59
2023-05-25T09:10:52.580Z,37.81
2023-05-25T09:13:22.385Z,37.57
2023-05-25T09:15:50.306Z,37.30
2023-05-25T09:18:17.216Z,37.44
2023-05-25T09:20:46.621Z,36.61
2023-05-25T09:23:15.246Z,35.94
2023-05-25T09:25:42.218Z,36.20
2023-05-25T09:28:25.654Z,36.07
2023-05-25T09:30:54.142Z,35.88
2023-05-25T09:33:21.369Z,36.02
2023-05-25T09:35:48.461Z,36.14
2023-05-25T09:38:16.334Z,35.45
2023-05-25T09:40:44.048Z,35.59
2023-05-25T09:43:17.328Z,34.75
2023-05-25T09:45:49.298Z,34.91
2023-05-25T09:48:16.204Z,35.02
2023-05-25T09:50:43.325Z,35.03
2023-05-25T09:53:10.480Z,35.20
2023-05-25T09:55:51.975Z,35.11
2023-05-25T09:58:21.430Z,34.74
2023-05-25T10:00:48.531Z,34.46
2023-05-25T10:03:16.021Z,34.49
2023-05-25T10:05:42.914Z,34.21
2023-05-25T10:08:09.927Z,33.83
2023-05-25T10:10:36.783Z,33.72
2023-05-25T10:13:03.652Z,33.76
2023-05-25T10:15:30.522Z,33.03
2023-05-25T10:17:57.367Z,33.12
2023-05-25T10:20:26.139Z,32.92
2023-05-25T10:23:13.293Z,33.34
2023-05-25T10:25:48.090Z,32.72
2023-05-25T10:28:28.536Z,32.66
2023-05-25T10:30:57.084Z,32.33
2023-05-25T10:33:23.718Z,32.79
2023-05-25T10:36:02.504Z,32.85
2023-05-25T10:38:36.144Z,32.68
2023-05-25T10:41:03.015Z,32.74
2023-05-25T10:43:29.883Z,32.32
2023-05-25T10:45:57.548Z,32.28
2023-05-25T10:48:25.263Z,32.14
2023-05-25T10:50:52.202Z,31.94
2023-05-25T10:53:21.425Z,31.67
2023-05-25T10:56:01.251Z,31.58
2023-05-25T10:58:29.088Z,31.67
2023-05-25T11:00:59.938Z,31.52
2023-05-25T11:03:45.559Z,31.41
2023-05-25T11:06:18.368Z,31.48
2023-05-25T11:08:55.534Z,31.57
2023-05-25T11:11:23.234Z,31.28
2023-05-25T11:13:50.411Z,31.29
2023-05-25T11:16:21.579Z,30.95
2023-05-25T11:18:53.388Z,31.30
2023-05-25T11:21:24.231Z,31.30
2023-05-25T11:23:55.412Z,31.03
2023-05-25T11:26:26.680Z,31.40
2023-05-25T11:28:54.232Z,31.12
2023-05-25T11:31:37.514Z,30.42
2023-05-25T11:34:06.719Z,30.75
2023-05-25T11:36:35.910Z,30.71
2023-05-25T11:39:11.609Z,30.35
2023-05-25T11:41:48.608Z,30.14
2023-05-25T11:44:15.409Z,30.22
2023-05-25T11:46:43.876Z,30.30
2023-05-25T11:49:11.230Z,29.73
2023-05-25T11:51:38.166Z,29.63
2023-05-25T11:54:05.077Z,30.04
2023-05-25T11:56:35.631Z,29.21
2023-05-25T11:59:02.817Z,29.36
2023-05-25T12:01:34.613Z,29.33
2023-05-25T12:04:05.279Z,29.13
2023-05-25T12:06:37.004Z,29.13
2023-05-25T12:09:05.667Z,28.85
2023-05-25T12:11:38.576Z,28.65
2023-05-25T12:14:06.972Z,28.53
2023-05-25T12:16:34.924Z,28.12
2023-05-25T12:19:02.184Z,28.38
2023-05-25T12:21:29.090Z,27.66
2023-05-25T12:23:55.978Z,27.73
2023-05-25T12:26:23.729Z,27.49
2023-05-25T12:29:06.816Z,26.80
2023-05-25T12:34:20.386Z,26.79
2023-05-25T12:36:54.138Z,26.25
2023-05-25T12:39:30.068Z,25.99
2023-05-25T12:41:57.987Z,25.69
2023-05-25T12:44:27.802Z,26.31
2023-05-25T12:46:55.777Z,25.87
2023-05-25T12:49:26.742Z,25.65
2023-05-25T12:51:53.603Z,25.23
2023-05-25T12:54:40.234Z,25.15
2023-05-25T12:57:07.890Z,24.84
2023-05-25T12:59:37.876Z,25.15
2023-05-25T13:02:08.517Z,25.08
2023-05-25T13:04:36.270Z,25.57
2023-05-25T13:07:03.609Z,26.50
2023-05-25T13:09:31.274Z,26.96
2023-05-25T13:11:58.306Z,27.19
2023-05-25T13:14:25.567Z,27.84
2023-05-25T13:16:52.958Z,28.41
2023-05-25T13:19:20.923Z,29.04
2023-05-25T13:21:49.435Z,28.93
2023-05-25T13:24:19.873Z,29.75
2023-05-25T13:26:49.215Z,29.70
2023-05-25T13:29:17.678Z,30.26
2023-05-25T13:31:44.727Z,30.88
2023-05-25T13:34:11.885Z,30.59
2023-05-25T13:36:38.749Z,31.30
2023-05-25T13:39:05.725Z,31.30
2023-05-25T13:41:32.658Z,31.88
2023-05-25T13:43:59.512Z,32.06
2023-05-25T13:46:34.325Z,32.10
2023-05-25T13:49:03.505Z,32.34
2023-05-25T13:51:30.706Z,32.43
2023-05-25T13:53:57.592Z,32.92
2023-05-25T13:56:24.506Z,33.23
2023-05-25T13:58:52.124Z,33.39
2023-05-25T14:01:19.045Z,33.45
2023-05-25T14:03:46.517Z,33.58
2023-05-25T14:06:13.826Z,33.66
2023-05-25T14:08:40.733Z,33.65
2023-05-25T14:11:07.504Z,33.76
2023-05-25T14:13:36.653Z,33.96
2023-05-25T14:16:03.995Z,33.75
2023-05-25T14:18:31.091Z,34.11
2023-05-25T14:20:58.289Z,34.13
2023-05-25T14:23:25.132Z,34.34
2023-05-25T14:25:52.163Z,34.52
2023-05-25T14:28:19.154Z,34.50
2023-05-25T14:30:46.011Z,34.70
2023-05-25T14:33:14.718Z,34.79
2023-05-25T14:35:43.085Z,34.92
2023-05-25T14:38:10.351Z,35.09
2023-05-25T14:40:37.163Z,35.07
2023-05-25T14:43:04.314Z,35.07
2023-05-25T14:45:31.103Z,35.55
2023-05-25T14:48:11.917Z,35.70
2023-05-25T14:50:44.677Z,35.59
2023-05-25T14:53:11.956Z,35.87
2023-05-25T14:55:38.774Z,35.84
2023-05-25T14:58:05.731Z,35.97
2023-05-25T15:00:32.664Z,35.96
2023-05-25T15:02:59.709Z,36.17
2023-05-25T15:05:26.675Z,36.11
2023-05-25T15:07:54.907Z,36.05
2023-05-25T15:10:21.705Z,36.24
2023-05-25T15:12:48.577Z,36.30
2023-05-25T15:15:15.583Z,36.29
2023-05-25T15:17:42.486Z,36.50
2023-05-25T15:20:09.925Z,36.51
2023-05-25T15:22:36.965Z,36.67
2023-05-25T15:25:04.488Z,36.51
2023-05-25T15:27:32.660Z,36.71
2023-05-25T15:29:59.555Z,36.82
2023-05-25T15:32:26.406Z,36.76
2023-05-25T15:34:53.391Z,37.06
2023-05-25T15:37:20.242Z,36.81
2023-05-25T15:39:47.043Z,36.98
2023-05-25T15:42:13.894Z,36.98
2023-05-25T15:44:41.211Z,37.25
2023-05-25T15:47:08.036Z,37.02
2023-05-25T15:49:37.357Z,37.08
2023-05-25T15:52:04.593Z,37.23
2023-05-25T15:54:31.505Z,37.10
2023-05-25T15:56:58.473Z,37.04
2023-05-25T15:59:25.306Z,37.13
2023-05-25T16:01:52.210Z,37.50
2023-05-25T16:07:04.027Z,37.38
2023-05-25T16:09:31.658Z,37.36
2023-05-25T16:11:58.528Z,37.50
2023-05-25T16:14:25.448Z,37.48
2023-05-25T16:16:52.264Z,37.59
2023-05-25T16:19:19.122Z,37.52
2023-05-25T16:21:46.082Z,37.49
2023-05-25T16:24:13.023Z,37.87
2023-05-25T16:26:39.807Z,37.92
2023-05-25T16:29:26.268Z,37.59
2023-05-25T16:31:54.964Z,37.67
2023-05-25T16:34:22.192Z,37.80
2023-05-25T16:36:49.198Z,37.60
2023-05-25T16:39:16.053Z,37.89
2023-05-25T16:41:42.984Z,37.48
2023-05-25T16:44:11.624Z,37.76
2023-05-25T16:46:38.704Z,37.67
2023-05-25T16:49:05.986Z,37.56
2023-05-25T16:54:18.314Z,37.75
2023-05-25T16:56:45.150Z,37.48
2023-05-25T16:59:11.935Z,37.52
2023-05-25T17:01:39.023Z,37.74
2023-05-25T17:04:05.926Z,37.83
2023-05-25T17:06:33.105Z,37.76
2023-05-25T17:09:01.086Z,37.54
2023-05-25T17:11:28.263Z,37.67
2023-05-25T17:13:55.282Z,37.30
2023-05-25T17:16:22.688Z,37.59
2023-05-25T17:18:49.518Z,37.45
2023-05-25T17:21:16.470Z,37.51
2023-05-25T17:23:43.685Z,37.56
2023-05-25T17:26:10.465Z,37.53
2023-05-25T17:28:37.623Z,37.91
2023-05-25T17:31:04.856Z,37.85
2023-05-25T17:33:31.659Z,37.50
2023-05-25T17:35:58.513Z,37.90
2023-05-25T17:38:26.532Z,37.89
2023-05-25T17:40:53.389Z,37.66
2023-05-25T17:43:20.356Z,37.67
2023-05-25T17:45:47.632Z,37.68
2023-05-25T17:48:14.622Z,37.70
2023-05-25T17:50:41.484Z,37.56
2023-05-25T17:53:08.595Z,37.98
2023-05-25T17:55:35.514Z,37.73
2023-05-25T17:58:02.305Z,37.73
2023-05-25T18:00:31.053Z,38.08
2023-05-25T18:02:57.884Z,38.22
2023-05-25T18:05:24.740Z,38.39
2023-05-25T18:07:51.973Z,38.23
2023-05-25T18:10:18.763Z,37.91
2023-05-25T18:12:49.293Z,38.15
2023-05-25T18:15:16.336Z,38.31
2023-05-25T18:17:43.280Z,38.26
2023-05-25T18:20:10.973Z,38.31
2023-05-25T18:22:37.943Z,38.71
2023-05-25T18:25:05.503Z,38.74
2023-05-25T18:27:32.335Z,38.52
2023-05-25T18:29:59.386Z,38.64
2023-05-25T18:32:26.261Z,38.75
2023-05-25T18:34:53.859Z,38.53
2023-05-25T18:37:23.487Z,38.93
2023-05-25T18:39:50.700Z,38.95
2023-05-25T18:42:17.509Z,38.81
2023-05-25T18:44:44.529Z,38.93
2023-05-25T18:47:11.924Z,39.29
2023-05-25T18:49:38.760Z,39.30
2023-05-25T18:52:06.790Z,39.14
2023-05-25T18:54:33.768Z,39.38
2023-05-25T18:57:01.728Z,39.53
2023-05-25T18:59:28.935Z,39.47
2023-05-25T19:01:56.089Z,39.53
2023-05-25T19:04:23.229Z,39.54
2023-05-25T19:06:50.250Z,39.80
2023-05-25T19:09:17.033Z,39.65
2023-05-25T19:11:43.839Z,39.55
2023-05-25T19:14:10.828Z,39.57
2023-05-25T19:16:37.694Z,39.53
2023-05-25T19:19:05.157Z,39.72
2023-05-25T19:21:32.250Z,40.03
2023-05-25T19:23:59.258Z,39.77
2023-05-25T19:26:26.220Z,40.33
2023-05-25T19:28:53.369Z,40.29
2023-05-25T19:31:21.634Z,40.25
2023-05-25T19:33:48.639Z,40.00
2023-05-25T19:36:15.541Z,40.43
2023-05-25T19:38:42.597Z,40.55
2023-05-25T19:41:09.395Z,40.36
2023-05-25T19:43:36.322Z,40.29
2023-05-25T19:46:03.313Z,40.28
2023-05-25T19:48:30.233Z,40.47
2023-05-25T19:50:57.910Z,40.89
2023-05-25T19:53:24.824Z,40.87
2023-05-25T19:55:51.703Z,40.99
2023-05-25T19:58:18.951Z,41.00
2023-05-25T20:00:45.948Z,41.40
2023-05-25T20:03:12.944Z,41.10
2023-05-25T20:05:40.404Z,41.22
2023-05-25T20:08:07.312Z,41.40
2023-05-25T20:10:39.031Z,41.86
2023-05-25T20:13:07.552Z,41.71
2023-05-25T20:15:34.735Z,42.15
2023-05-25T20:18:02.338Z,41.91
2023-05-25T20:20:29.286Z,42.29
2023-05-25T20:22:56.585Z,42.49
2023-05-25T20:25:23.455Z,42.32
2023-05-25T20:27:50.445Z,42.73
2023-05-25T20:30:17.494Z,42.83
2023-05-25T20:32:44.399Z,42.58
2023-05-25T20:35:11.921Z,42.88
2023-05-25T20:37:38.905Z,42.66
2023-05-25T20:40:06.966Z,43.32
2023-05-25T20:45:18.366Z,43.01
2023-05-25T20:47:45.262Z,43.16
2023-05-25T20:50:12.141Z,43.29
2023-05-25T20:52:38.985Z,43.39
2023-05-25T20:55:06.129Z,43.83
2023-05-25T20:57:33.066Z,44.04
2023-05-25T21:02:44.429Z,43.94
2023-05-25T21:05:11.461Z,43.96
2023-05-25T21:07:57.459Z,44.20
2023-05-25T21:10:24.239Z,44.13
2023-05-25T21:12:51.271Z,44.38
2023-05-25T21:15:18.176Z,44.46
2023-05-25T21:17:45.087Z,44.77
2023-05-25T21:20:12.057Z,45.03
2023-05-25T21:22:39.016Z,45.04
2023-05-25T21:25:06.634Z,44.83
2023-05-25T21:27:33.527Z,45.08
2023-05-25T21:32:45.133Z,45.50
2023-05-25T21:35:12.025Z,45.76
2023-05-25T21:37:38.905Z,45.66
2023-05-25T21:40:06.981Z,45.91
2023-05-25T21:42:33.778Z,46.04
2023-05-25T21:45:00.685Z,46.25
2023-05-25T21:47:27.791Z,46.08
2023-05-25T21:49:56.285Z,46.36
2023-05-25T21:52:23.508Z,46.67
2023-05-25T21:54:50.519Z,46.76
2023-05-25T21:57:17.328Z,46.99
2023-05-25T21:59:44.246Z,46.89
2023-05-25T22:04:38.670Z,47.16
2023-05-25T22:07:05.619Z,47.16
2023-05-25T22:09:32.552Z,47.22
2023-05-25T22:11:59.366Z,47.47
2023-05-25T22:14:26.187Z,47.91
2023-05-25T22:16:53.256Z,47.85
2023-05-25T22:19:20.142Z,48.01
2023-05-25T22:21:46.944Z,48.17
2023-05-25T22:24:13.834Z,48.09
2023-05-25T22:26:40.711Z,48.13
2023-05-25T22:29:07.581Z,48.27
2023-05-25T22:31:34.638Z,48.37
2023-05-25T22:34:01.456Z,48.81
2023-05-25T22:36:28.236Z,48.83
2023-05-25T22:38:55.084Z,48.84
2023-05-25T22:41:21.874Z,49.27
2023-05-25T22:43:48.814Z,49.01
2023-05-25T22:46:15.759Z,49.15
2023-05-25T22:48:43.956Z,49.36
2023-05-25T22:51:10.832Z,49.49
2023-05-25T22:53:37.697Z,49.39
2023-05-25T22:56:04.554Z,49.44
2023-05-25T22:58:31.358Z,49.55
2023-05-25T23:03:42.938Z,49.88
2023-05-25T23:06:09.813Z,49.87
2023-05-25T23:08:36.619Z,49.88
2023-05-25T23:11:03.517Z,50.23
2023-05-25T23:13:30.277Z,50.47
2023-05-25T23:15:57.098Z,50.56
2023-05-25T23:18:23.951Z,51.00
2023-05-25T23:20:50.967Z,51.38
2023-05-25T23:23:17.777Z,52.09
2023-05-25T23:25:45.284Z,52.12
2023-05-25T23:28:12.276Z,53.30
2023-05-25T23:30:40.262Z,53.65
2023-05-25T23:33:08.660Z,53.27
2023-05-25T23:35:35.631Z,53.84
2023-05-25T23:38:02.634Z,54.26
2023-05-25T23:40:29.741Z,54.50
2023-05-25T23:42:56.648Z,55.04
2023-05-25T23:45:23.477Z,55.47
2023-05-25T23:47:50.414Z,55.80
2023-05-25T23:50:17.497Z,56.35
2023-05-25T23:52:45.209Z,56.13
2023-05-25T23:55:12.725Z,55.71
2023-05-25T23:57:40.208Z,55.30
